sensor_id;sensor_type;location;lat;lon;timestamp;P1;durP1;ratioP1;P2;durP2;ratioP2
55148;SDS011;49539;48.160;11.530;2023-05-15T00:01:16;8.30;;;4.25;;
55148;SDS011;49539;48.160;11.530;2023-05-15T00:03:42;6.38;;;3.30;;
55148;SDS011;49539;48.160;11.530;2023-05-15T00:06:07;8.20;;;4.07;;
55148;SDS011;49539;48.160;11.530;2023-05-15T00:08:33;9.18;;;4.05;;
55148;SDS011;49539;48.160;11.530;2023-05-15T00:10:59;8.75;;;4.20;;
55148;SDS011;49539;48.160;11.530;2023-05-15T00:13:27;6.47;;;3.55;;
55148;SDS011;49539;48.160;11.530;2023-05-15T00:15:53;7.38;;;4.07;;
55148;SDS011;49539;48.160;11.530;2023-05-15T00:18:18;7.53;;;4.07;;
55148;SDS011;49539;48.160;11.530;2023-05-15T00:20:43;6.00;;;3.63;;
55148;SDS011;49539;48.160;11.530;2023-05-15T00:23:09;7.72;;;3.70;;
55148;SDS011;49539;48.160;11.530;2023-05-15T00:25:35;8.63;;;4.70;;
55148;SDS011;49539;48.160;11.530;2023-05-15T00:28:01;8.80;;;4.23;;
55148;SDS011;49539;48.160;11.530;2023-05-15T00:30:27;6.65;;;3.40;;
55148;SDS011;49539;48.160;11.530;2023-05-15T00:32:52;8.07;;;4.78;;
55148;SDS011;49539;48.160;11.530;2023-05-15T00:35:17;7.65;;;4.25;;
55148;SDS011;49539;48.160;11.530;2023-05-15T00:37:43;6.18;;;4.13;;
55148;SDS011;49539;48.160;11.530;2023-05-15T00:40:08;7.53;;;4.73;;
55148;SDS011;49539;48.160;11.530;2023-05-15T00:42:34;8.38;;;5.07;;
55148;SDS011;49539;48.160;11.530;2023-05-15T00:45:00;11.05;;;5.78;;
55148;SDS011;49539;48.160;11.530;2023-05-15T00:47:26;8.38;;;4.57;;
55148;SDS011;49539;48.160;11.530;2023-05-15T00:49:52;8.85;;;4.78;;
55148;SDS011;49539;48.160;11.530;2023-05-15T00:52:17;12.75;;;5.88;;
55148;SDS011;49539;48.160;11.530;2023-05-15T00:54:43;8.65;;;5.00;;
55148;SDS011;49539;48.160;11.530;2023-05-15T00:57:08;11.70;;;5.57;;
55148;SDS011;49539;48.160;11.530;2023-05-15T00:59:34;10.95;;;5.78;;
55148;SDS011;49539;48.160;11.530;2023-05-15T01:02:00;11.20;;;6.03;;
55148;SDS011;49539;48.160;11.530;2023-05-15T01:04:26;10.32;;;5.50;;
55148;SDS011;49539;48.160;11.530;2023-05-15T01:06:51;10.77;;;5.43;;
55148;SDS011;49539;48.160;11.530;2023-05-15T01:09:19;9.82;;;5.57;;
55148;SDS011;49539;48.160;11.530;2023-05-15T01:11:45;16.27;;;5.75;;
55148;SDS011;49539;48.160;11.530;2023-05-15T01:14:11;10.85;;;5.72;;
55148;SDS011;49539;48.160;11.530;2023-05-15T01:16:37;11.77;;;6.72;;
55148;SDS011;49539;48.160;11.530;2023-05-15T01:19:03;11.25;;;6.43;;
55148;SDS011;49539;48.160;11.530;2023-05-15T01:21:40;10.23;;;5.35;;
55148;SDS011;49539;48.160;11.530;2023-05-15T01:32:03;12.75;;;5.55;;
55148;SDS011;49539;48.160;11.530;2023-05-15T01:34:43;10.88;;;6.28;;
55148;SDS011;49539;48.160;11.530;2023-05-15T01:37:10;11.85;;;5.93;;
55148;SDS011;49539;48.160;11.530;2023-05-15T01:39:37;10.10;;;5.97;;
55148;SDS011;49539;48.160;11.530;2023-05-15T01:42:05;10.73;;;6.40;;
55148;SDS011;49539;48.160;11.530;2023-05-15T01:44:34;12.55;;;6.70;;
55148;SDS011;49539;48.160;11.530;2023-05-15T01:47:01;14.75;;;6.80;;
55148;SDS011;49539;48.160;11.530;2023-05-15T01:49:28;11.65;;;6.18;;
55148;SDS011;49539;48.160;11.530;2023-05-15T01:51:58;13.10;;;7.88;;
55148;SDS011;49539;48.160;11.530;2023-05-15T01:54:26;12.13;;;6.55;;
55148;SDS011;49539;48.160;11.530;2023-05-15T01:56:52;13.30;;;6.57;;
55148;SDS011;49539;48.160;11.530;2023-05-15T01:59:19;13.00;;;7.47;;
55148;SDS011;49539;48.160;11.530;2023-05-15T02:01:45;13.68;;;6.72;;
55148;SDS011;49539;48.160;11.530;2023-05-15T02:04:10;16.77;;;8.45;;
55148;SDS011;49539;48.160;11.530;2023-05-15T02:06:36;13.48;;;6.82;;
55148;SDS011;49539;48.160;11.530;2023-05-15T02:09:03;13.77;;;6.47;;
55148;SDS011;49539;48.160;11.530;2023-05-15T02:11:28;11.93;;;6.40;;
55148;SDS011;49539;48.160;11.530;2023-05-15T02:13:55;10.20;;;6.10;;
55148;SDS011;49539;48.160;11.530;2023-05-15T02:16:21;13.45;;;7.20;;
55148;SDS011;49539;48.160;11.530;2023-05-15T02:18:46;12.32;;;7.30;;
55148;SDS011;49539;48.160;11.530;2023-05-15T02:21:11;15.70;;;8.82;;
55148;SDS011;49539;48.160;11.530;2023-05-15T02:23:37;12.57;;;6.60;;
55148;SDS011;49539;48.160;11.530;2023-05-15T02:36:32;13.52;;;7.80;;
55148;SDS011;49539;48.160;11.530;2023-05-15T02:39:00;16.15;;;8.82;;
55148;SDS011;49539;48.160;11.530;2023-05-15T02:41:27;13.25;;;7.88;;
55148;SDS011;49539;48.160;11.530;2023-05-15T02:43:55;14.35;;;8.85;;
55148;SDS011;49539;48.160;11.530;2023-05-15T02:46:20;14.85;;;8.73;;
55148;SDS011;49539;48.160;11.530;2023-05-15T02:48:48;14.60;;;7.88;;
55148;SDS011;49539;48.160;11.530;2023-05-15T02:51:14;14.55;;;7.15;;
55148;SDS011;49539;48.160;11.530;2023-05-15T02:53:40;13.32;;;7.50;;
55148;SDS011;49539;48.160;11.530;2023-05-15T02:56:07;12.75;;;7.82;;
55148;SDS011;49539;48.160;11.530;2023-05-15T02:58:34;13.55;;;7.50;;
55148;SDS011;49539;48.160;11.530;2023-05-15T03:01:02;13.48;;;7.65;;
55148;SDS011;49539;48.160;11.530;2023-05-15T03:03:28;16.13;;;6.68;;
55148;SDS011;49539;48.160;11.530;2023-05-15T03:05:54;16.08;;;7.28;;
55148;SDS011;49539;48.160;11.530;2023-05-15T03:08:20;11.90;;;6.97;;
55148;SDS011;49539;48.160;11.530;2023-05-15T03:10:45;14.73;;;7.43;;
55148;SDS011;49539;48.160;11.530;2023-05-15T03:13:10;13.10;;;7.00;;
55148;SDS011;49539;48.160;11.530;2023-05-15T03:15:36;13.05;;;6.53;;
55148;SDS011;49539;48.160;11.530;2023-05-15T03:18:02;12.43;;;7.15;;
55148;SDS011;49539;48.160;11.530;2023-05-15T03:20:28;10.07;;;6.03;;
55148;SDS011;49539;48.160;11.530;2023-05-15T03:22:53;13.00;;;6.60;;
55148;SDS011;49539;48.160;11.530;2023-05-15T03:25:19;12.15;;;6.97;;
55148;SDS011;49539;48.160;11.530;2023-05-15T03:27:45;10.95;;;5.95;;
55148;SDS011;49539;48.160;11.530;2023-05-15T03:30:10;11.93;;;6.38;;
55148;SDS011;49539;48.160;11.530;2023-05-15T03:32:35;11.10;;;6.57;;
55148;SDS011;49539;48.160;11.530;2023-05-15T03:35:01;12.13;;;6.60;;
55148;SDS011;49539;48.160;11.530;2023-05-15T03:37:27;11.13;;;6.20;;
55148;SDS011;49539;48.160;11.530;2023-05-15T03:39:53;11.77;;;6.50;;
55148;SDS011;49539;48.160;11.530;2023-05-15T03:42:18;11.73;;;6.25;;
55148;SDS011;49539;48.160;11.530;2023-05-15T03:44:47;8.68;;;5.35;;
55148;SDS011;49539;48.160;11.530;2023-05-15T03:47:12;11.73;;;7.10;;
55148;SDS011;49539;48.160;11.530;2023-05-15T03:49:38;11.05;;;6.38;;
55148;SDS011;49539;48.160;11.530;2023-05-15T03:52:03;13.25;;;6.55;;
55148;SDS011;49539;48.160;11.530;2023-05-15T03:54:29;11.00;;;6.72;;
55148;SDS011;49539;48.160;11.530;2023-05-15T03:56:54;11.40;;;7.03;;
55148;SDS011;49539;48.160;11.530;2023-05-15T03:59:20;11.20;;;6.53;;
55148;SDS011;49539;48.160;11.530;2023-05-15T04:01:47;11.32;;;7.20;;
55148;SDS011;49539;48.160;11.530;2023-05-15T04:04:12;12.60;;;7.13;;
55148;SDS011;49539;48.160;11.530;2023-05-15T04:06:38;12.50;;;6.47;;
55148;SDS011;49539;48.160;11.530;2023-05-15T04:09:03;15.05;;;6.97;;
55148;SDS011;49539;48.160;11.530;2023-05-15T04:11:28;13.07;;;7.47;;
55148;SDS011;49539;48.160;11.530;2023-05-15T04:13:54;13.65;;;7.00;;
55148;SDS011;49539;48.160;11.530;2023-05-15T04:16:19;12.52;;;6.93;;
55148;SDS011;49539;48.160;11.530;2023-05-15T04:18:45;10.80;;;6.95;;
55148;SDS011;49539;48.160;11.530;2023-05-15T04:21:10;13.13;;;7.85;;
55148;SDS011;49539;48.160;11.530;2023-05-15T04:23:35;12.07;;;6.88;;
55148;SDS011;49539;48.160;11.530;2023-05-15T04:26:02;12.65;;;7.10;;
55148;SDS011;49539;48.160;11.530;2023-05-15T04:28:28;11.20;;;6.40;;
55148;SDS011;49539;48.160;11.530;2023-05-15T04:30:53;14.30;;;7.18;;
55148;SDS011;49539;48.160;11.530;2023-05-15T04:33:18;15.30;;;7.63;;
55148;SDS011;49539;48.160;11.530;2023-05-15T04:35:44;13.77;;;7.80;;
55148;SDS011;49539;48.160;11.530;2023-05-15T04:38:09;14.60;;;8.00;;
55148;SDS011;49539;48.160;11.530;2023-05-15T04:40:36;12.27;;;7.03;;
55148;SDS011;49539;48.160;11.530;2023-05-15T04:43:02;14.40;;;7.75;;
55148;SDS011;49539;48.160;11.530;2023-05-15T04:45:28;12.02;;;6.97;;
55148;SDS011;49539;48.160;11.530;2023-05-15T04:47:53;11.77;;;6.72;;
55148;SDS011;49539;48.160;11.530;2023-05-15T04:50:18;12.98;;;6.68;;
55148;SDS011;49539;48.160;11.530;2023-05-15T04:52:44;13.23;;;7.30;;
55148;SDS011;49539;48.160;11.530;2023-05-15T04:55:10;15.48;;;7.38;;
55148;SDS011;49539;48.160;11.530;2023-05-15T04:57:35;11.13;;;6.18;;
55148;SDS011;49539;48.160;11.530;2023-05-15T05:00:00;15.00;;;7.00;;
55148;SDS011;49539;48.160;11.530;2023-05-15T05:02:26;12.23;;;7.00;;
55148;SDS011;49539;48.160;11.530;2023-05-15T05:04:51;11.48;;;6.40;;
55148;SDS011;49539;48.160;11.530;2023-05-15T05:07:17;10.88;;;7.20;;
55148;SDS011;49539;48.160;11.530;2023-05-15T05:09:44;13.07;;;7.78;;
55148;SDS011;49539;48.160;11.530;2023-05-15T05:12:10;11.48;;;7.45;;
55148;SDS011;49539;48.160;11.530;2023-05-15T05:14:35;15.73;;;7.55;;
55148;SDS011;49539;48.160;11.530;2023-05-15T05:17:01;10.80;;;6.50;;
55148;SDS011;49539;48.160;11.530;2023-05-15T05:19:27;14.68;;;7.38;;
55148;SDS011;49539;48.160;11.530;2023-05-15T05:21:52;17.10;;;6.85;;
55148;SDS011;49539;48.160;11.530;2023-05-15T05:24:18;14.45;;;7.60;;
55148;SDS011;49539;48.160;11.530;2023-05-15T05:26:43;12.07;;;7.32;;
55148;SDS011;49539;48.160;11.530;2023-05-15T05:29:09;14.38;;;7.90;;
55148;SDS011;49539;48.160;11.530;2023-05-15T05:31:35;13.18;;;6.57;;
55148;SDS011;49539;48.160;11.530;2023-05-15T05:34:00;9.50;;;6.00;;
55148;SDS011;49539;48.160;11.530;2023-05-15T05:36:26;10.70;;;6.53;;
55148;SDS011;49539;48.160;11.530;2023-05-15T05:38:51;12.98;;;6.65;;
55148;SDS011;49539;48.160;11.530;2023-05-15T05:41:16;11.57;;;6.50;;
55148;SDS011;49539;48.160;11.530;2023-05-15T05:43:41;12.23;;;7.15;;
55148;SDS011;49539;48.160;11.530;2023-05-15T05:46:07;14.23;;;8.73;;
55148;SDS011;49539;48.160;11.530;2023-05-15T05:48:32;12.43;;;7.20;;
55148;SDS011;49539;48.160;11.530;2023-05-15T05:50:57;11.57;;;6.65;;
55148;SDS011;49539;48.160;11.530;2023-05-15T05:53:23;13.73;;;7.78;;
55148;SDS011;49539;48.160;11.530;2023-05-15T05:55:48;13.38;;;7.75;;
55148;SDS011;49539;48.160;11.530;2023-05-15T05:58:13;13.40;;;7.07;;
55148;SDS011;49539;48.160;11.530;2023-05-15T06:00:40;11.95;;;7.15;;
55148;SDS011;49539;48.160;11.530;2023-05-15T06:03:05;11.73;;;7.25;;
55148;SDS011;49539;48.160;11.530;2023-05-15T06:05:30;14.70;;;7.20;;
55148;SDS011;49539;48.160;11.530;2023-05-15T06:07:56;13.35;;;7.63;;
55148;SDS011;49539;48.160;11.530;2023-05-15T06:10:22;11.48;;;6.93;;
55148;SDS011;49539;48.160;11.530;2023-05-15T06:12:47;14.45;;;8.18;;
55148;SDS011;49539;48.160;11.530;2023-05-15T06:15:13;12.02;;;6.63;;
55148;SDS011;49539;48.160;11.530;2023-05-15T06:17:38;11.48;;;6.45;;
55148;SDS011;49539;48.160;11.530;2023-05-15T06:20:04;13.23;;;8.63;;
55148;SDS011;49539;48.160;11.530;2023-05-15T06:22:36;11.85;;;6.93;;
55148;SDS011;49539;48.160;11.530;2023-05-15T06:25:03;15.50;;;6.93;;
55148;SDS011;49539;48.160;11.530;2023-05-15T06:27:29;13.90;;;7.78;;
55148;SDS011;49539;48.160;11.530;2023-05-15T06:29:54;10.07;;;6.32;;
55148;SDS011;49539;48.160;11.530;2023-05-15T06:32:20;12.43;;;7.32;;
55148;SDS011;49539;48.160;11.530;2023-05-15T06:34:45;10.32;;;6.25;;
55148;SDS011;49539;48.160;11.530;2023-05-15T06:37:10;11.82;;;7.18;;
55148;SDS011;49539;48.160;11.530;2023-05-15T06:39:36;12.40;;;6.63;;
55148;SDS011;49539;48.160;11.530;2023-05-15T06:42:01;10.27;;;6.30;;
55148;SDS011;49539;48.160;11.530;2023-05-15T06:44:27;9.85;;;6.15;;
55148;SDS011;49539;48.160;11.530;2023-05-15T06:46:53;12.20;;;7.25;;
55148;SDS011;49539;48.160;11.530;2023-05-15T06:49:18;12.95;;;6.72;;
55148;SDS011;49539;48.160;11.530;2023-05-15T06:51:43;11.50;;;6.78;;
55148;SDS011;49539;48.160;11.530;2023-05-15T06:54:09;10.25;;;6.32;;
55148;SDS011;49539;48.160;11.530;2023-05-15T06:56:34;15.70;;;6.60;;
55148;SDS011;49539;48.160;11.530;2023-05-15T06:58:59;14.30;;;7.07;;
55148;SDS011;49539;48.160;11.530;2023-05-15T07:01:24;12.43;;;6.63;;
55148;SDS011;49539;48.160;11.530;2023-05-15T07:03:50;13.43;;;6.88;;
55148;SDS011;49539;48.160;11.530;2023-05-15T07:06:15;11.27;;;6.32;;
55148;SDS011;49539;48.160;11.530;2023-05-15T07:08:40;9.57;;;5.43;;
55148;SDS011;49539;48.160;11.530;2023-05-15T07:11:06;9.60;;;5.82;;
55148;SDS011;49539;48.160;11.530;2023-05-15T07:13:31;9.43;;;5.78;;
55148;SDS011;49539;48.160;11.530;2023-05-15T07:15:56;9.73;;;5.63;;
55148;SDS011;49539;48.160;11.530;2023-05-15T07:18:22;11.30;;;5.28;;
55148;SDS011;49539;48.160;11.530;2023-05-15T07:20:47;12.13;;;5.63;;
55148;SDS011;49539;48.160;11.530;2023-05-15T07:23:12;9.77;;;5.50;;
55148;SDS011;49539;48.160;11.530;2023-05-15T07:25:38;10.23;;;5.30;;
55148;SDS011;49539;48.160;11.530;2023-05-15T07:28:03;6.57;;;3.97;;
55148;SDS011;49539;48.160;11.530;2023-05-15T07:30:28;8.23;;;5.55;;
55148;SDS011;49539;48.160;11.530;2023-05-15T07:32:53;8.85;;;5.43;;
55148;SDS011;49539;48.160;11.530;2023-05-15T07:35:19;9.18;;;4.80;;
55148;SDS011;49539;48.160;11.530;2023-05-15T07:37:44;9.00;;;5.10;;
55148;SDS011;49539;48.160;11.530;2023-05-15T07:40:10;8.73;;;5.00;;
55148;SDS011;49539;48.160;11.530;2023-05-15T07:42:36;9.50;;;5.95;;
55148;SDS011;49539;48.160;11.530;2023-05-15T07:45:01;8.18;;;5.15;;
55148;SDS011;49539;48.160;11.530;2023-05-15T07:47:27;7.63;;;4.75;;
55148;SDS011;49539;48.160;11.530;2023-05-15T07:49:52;7.45;;;4.65;;
55148;SDS011;49539;48.160;11.530;2023-05-15T07:52:17;10.02;;;4.68;;
55148;SDS011;49539;48.160;11.530;2023-05-15T07:54:43;7.18;;;4.07;;
55148;SDS011;49539;48.160;11.530;2023-05-15T07:57:08;8.52;;;4.63;;
55148;SDS011;49539;48.160;11.530;2023-05-15T07:59:34;6.50;;;3.90;;
55148;SDS011;49539;48.160;11.530;2023-05-15T08:01:59;7.85;;;4.35;;
55148;SDS011;49539;48.160;11.530;2023-05-15T08:04:25;8.75;;;4.43;;
55148;SDS011;49539;48.160;11.530;2023-05-15T08:06:50;6.30;;;2.80;;
55148;SDS011;49539;48.160;11.530;2023-05-15T08:09:15;6.90;;;3.67;;
55148;SDS011;49539;48.160;11.530;2023-05-15T08:11:41;7.20;;;3.97;;
55148;SDS011;49539;48.160;11.530;2023-05-15T08:14:06;7.97;;;4.07;;
55148;SDS011;49539;48.160;11.530;2023-05-15T08:16:31;6.85;;;4.20;;
55148;SDS011;49539;48.160;11.530;2023-05-15T08:18:56;8.65;;;4.63;;
55148;SDS011;49539;48.160;11.530;2023-05-15T08:21:26;7.50;;;4.47;;
55148;SDS011;49539;48.160;11.530;2023-05-15T08:23:51;7.93;;;3.55;;
55148;SDS011;49539;48.160;11.530;2023-05-15T08:26:16;6.75;;;4.38;;
55148;SDS011;49539;48.160;11.530;2023-05-15T08:28:42;6.85;;;3.72;;
55148;SDS011;49539;48.160;11.530;2023-05-15T08:31:07;6.75;;;3.80;;
55148;SDS011;49539;48.160;11.530;2023-05-15T08:33:32;6.78;;;3.88;;
55148;SDS011;49539;48.160;11.530;2023-05-15T08:35:57;6.25;;;4.15;;
55148;SDS011;49539;48.160;11.530;2023-05-15T08:38:23;7.73;;;4.70;;
55148;SDS011;49539;48.160;11.530;2023-05-15T08:40:49;7.47;;;3.58;;
55148;SDS011;49539;48.160;11.530;2023-05-15T08:43:15;9.63;;;5.43;;
55148;SDS011;49539;48.160;11.530;2023-05-15T08:45:41;8.05;;;4.45;;
55148;SDS011;49539;48.160;11.530;2023-05-15T08:48:09;6.85;;;4.20;;
55148;SDS011;49539;48.160;11.530;2023-05-15T08:50:36;6.07;;;3.65;;
55148;SDS011;49539;48.160;11.530;2023-05-15T08:53:02;6.80;;;3.63;;
55148;SDS011;49539;48.160;11.530;2023-05-15T08:55:28;5.90;;;3.50;;
55148;SDS011;49539;48.160;11.530;2023-05-15T08:57:53;6.40;;;3.33;;
55148;SDS011;49539;48.160;11.530;2023-05-15T09:00:19;6.82;;;3.80;;
55148;SDS011;49539;48.160;11.530;2023-05-15T09:02:46;6.07;;;3.95;;
55148;SDS011;49539;48.160;11.530;2023-05-15T09:05:11;6.20;;;3.93;;
55148;SDS011;49539;48.160;11.530;2023-05-15T09:07:39;4.93;;;2.97;;
55148;SDS011;49539;48.160;11.530;2023-05-15T09:10:06;5.50;;;3.30;;
55148;SDS011;49539;48.160;11.530;2023-05-15T09:12:32;7.15;;;3.13;;
55148;SDS011;49539;48.160;11.530;2023-05-15T09:15:17;4.28;;;2.95;;
55148;SDS011;49539;48.160;11.530;2023-05-15T09:17:46;6.53;;;3.10;;
55148;SDS011;49539;48.160;11.530;2023-05-15T09:20:28;4.95;;;2.85;;
55148;SDS011;49539;48.160;11.530;2023-05-15T09:22:54;5.90;;;3.53;;
55148;SDS011;49539;48.160;11.530;2023-05-15T09:25:32;11.85;;;3.33;;
55148;SDS011;49539;48.160;11.530;2023-05-15T09:27:58;4.57;;;2.63;;
55148;SDS011;49539;48.160;11.530;2023-05-15T09:30:25;5.53;;;2.97;;
55148;SDS011;49539;48.160;11.530;2023-05-15T09:32:50;5.55;;;3.50;;
55148;SDS011;49539;48.160;11.530;2023-05-15T09:38:00;7.28;;;3.67;;
55148;SDS011;49539;48.160;11.530;2023-05-15T09:40:29;6.47;;;2.97;;
55148;SDS011;49539;48.160;11.530;2023-05-15T09:42:55;6.07;;;3.58;;
55148;SDS011;49539;48.160;11.530;2023-05-15T09:45:21;6.63;;;3.40;;
55148;SDS011;49539;48.160;11.530;2023-05-15T09:47:46;7.35;;;3.15;;
55148;SDS011;49539;48.160;11.530;2023-05-15T09:50:12;5.72;;;3.40;;
55148;SDS011;49539;48.160;11.530;2023-05-15T09:52:37;5.38;;;3.53;;
55148;SDS011;49539;48.160;11.530;2023-05-15T09:55:04;5.05;;;3.08;;
55148;SDS011;49539;48.160;11.530;2023-05-15T09:57:30;6.22;;;3.72;;
55148;SDS011;49539;48.160;11.530;2023-05-15T09:59:59;7.47;;;3.47;;
55148;SDS011;49539;48.160;11.530;2023-05-15T10:02:26;4.38;;;2.80;;
55148;SDS011;49539;48.160;11.530;2023-05-15T10:05:00;6.25;;;3.78;;
55148;SDS011;49539;48.160;11.530;2023-05-15T10:07:29;9.00;;;3.63;;
55148;SDS011;49539;48.160;11.530;2023-05-15T10:09:55;6.05;;;3.38;;
55148;SDS011;49539;48.160;11.530;2023-05-15T10:12:20;5.20;;;3.17;;
55148;SDS011;49539;48.160;11.530;2023-05-15T10:14:46;5.03;;;3.65;;
55148;SDS011;49539;48.160;11.530;2023-05-15T10:17:12;6.70;;;4.07;;
55148;SDS011;49539;48.160;11.530;2023-05-15T10:19:38;7.47;;;2.95;;
55148;SDS011;49539;48.160;11.530;2023-05-15T10:22:03;6.10;;;3.15;;
55148;SDS011;49539;48.160;11.530;2023-05-15T10:24:29;6.72;;;3.72;;
55148;SDS011;49539;48.160;11.530;2023-05-15T10:26:55;5.90;;;3.47;;
55148;SDS011;49539;48.160;11.530;2023-05-15T10:29:20;5.57;;;3.08;;
55148;SDS011;49539;48.160;11.530;2023-05-15T10:31:48;7.75;;;3.80;;
55148;SDS011;49539;48.160;11.530;2023-05-15T10:34:13;5.65;;;3.60;;
55148;SDS011;49539;48.160;11.530;2023-05-15T10:36:39;6.85;;;3.65;;
55148;SDS011;49539;48.160;11.530;2023-05-15T10:39:06;7.35;;;3.78;;
55148;SDS011;49539;48.160;11.530;2023-05-15T10:41:32;8.00;;;3.72;;
55148;SDS011;49539;48.160;11.530;2023-05-15T10:44:00;6.85;;;3.72;;
55148;SDS011;49539;48.160;11.530;2023-05-15T10:46:25;7.80;;;4.15;;
55148;SDS011;49539;48.160;11.530;2023-05-15T10:48:51;5.43;;;3.17;;
55148;SDS011;49539;48.160;11.530;2023-05-15T10:51:18;6.35;;;3.83;;
55148;SDS011;49539;48.160;11.530;2023-05-15T10:53:47;6.65;;;4.20;;
55148;SDS011;49539;48.160;11.530;2023-05-15T10:56:13;6.10;;;4.00;;
55148;SDS011;49539;48.160;11.530;2023-05-15T10:58:43;6.55;;;4.20;;
55148;SDS011;49539;48.160;11.530;2023-05-15T11:01:23;7.53;;;3.70;;
55148;SDS011;49539;48.160;11.530;2023-05-15T11:03:48;6.10;;;4.13;;
55148;SDS011;49539;48.160;11.530;2023-05-15T11:06:14;5.15;;;3.13;;
55148;SDS011;49539;48.160;11.530;2023-05-15T11:08:39;6.30;;;4.00;;
55148;SDS011;49539;48.160;11.530;2023-05-15T11:11:05;6.07;;;3.53;;
55148;SDS011;49539;48.160;11.530;2023-05-15T11:16:38;4.40;;;2.75;;
55148;SDS011;49539;48.160;11.530;2023-05-15T11:19:00;4.13;;;2.55;;
55148;SDS011;49539;48.160;11.530;2023-05-15T11:21:28;4.95;;;2.85;;
55148;SDS011;49539;48.160;11.530;2023-05-15T11:24:02;3.28;;;2.35;;
55148;SDS011;49539;48.160;11.530;2023-05-15T11:26:33;5.80;;;3.20;;
55148;SDS011;49539;48.160;11.530;2023-05-15T11:29:15;3.83;;;2.50;;
55148;SDS011;49539;48.160;11.530;2023-05-15T11:31:41;5.55;;;2.80;;
55148;SDS011;49539;48.160;11.530;2023-05-15T11:34:06;5.93;;;3.30;;
55148;SDS011;49539;48.160;11.530;2023-05-15T11:36:32;7.10;;;4.10;;
55148;SDS011;49539;48.160;11.530;2023-05-15T11:38:57;5.65;;;3.50;;
55148;SDS011;49539;48.160;11.530;2023-05-15T11:41:23;6.82;;;3.53;;
55148;SDS011;49539;48.160;11.530;2023-05-15T11:43:55;7.28;;;3.80;;
55148;SDS011;49539;48.160;11.530;2023-05-15T11:46:21;6.97;;;3.63;;
55148;SDS011;49539;48.160;11.530;2023-05-15T11:48:46;6.38;;;3.50;;
55148;SDS011;49539;48.160;11.530;2023-05-15T11:53:37;5.83;;;3.30;;
55148;SDS011;49539;48.160;11.530;2023-05-15T11:56:03;5.82;;;3.15;;
55148;SDS011;49539;48.160;11.530;2023-05-15T11:58:28;5.53;;;3.30;;
55148;SDS011;49539;48.160;11.530;2023-05-15T12:00:53;7.97;;;3.47;;
55148;SDS011;49539;48.160;11.530;2023-05-15T12:03:23;6.25;;;3.53;;
55148;SDS011;49539;48.160;11.530;2023-05-15T12:05:48;5.93;;;3.67;;
55148;SDS011;49539;48.160;11.530;2023-05-15T12:08:14;5.53;;;3.63;;
55148;SDS011;49539;48.160;11.530;2023-05-15T12:10:42;5.85;;;3.75;;
55148;SDS011;49539;48.160;11.530;2023-05-15T12:13:11;4.50;;;2.67;;
55148;SDS011;49539;48.160;11.530;2023-05-15T12:15:37;4.00;;;2.47;;
55148;SDS011;49539;48.160;11.530;2023-05-15T12:18:04;6.38;;;3.40;;
55148;SDS011;49539;48.160;11.530;2023-05-15T12:20:31;9.95;;;3.80;;
55148;SDS011;49539;48.160;11.530;2023-05-15T12:22:56;4.50;;;2.92;;
55148;SDS011;49539;48.160;11.530;2023-05-15T12:25:22;11.05;;;3.70;;
55148;SDS011;49539;48.160;11.530;2023-05-15T12:27:48;5.60;;;3.35;;
55148;SDS011;49539;48.160;11.530;2023-05-15T12:30:13;5.57;;;3.50;;
55148;SDS011;49539;48.160;11.530;2023-05-15T12:32:39;6.95;;;3.58;;
55148;SDS011;49539;48.160;11.530;2023-05-15T12:35:04;4.90;;;2.95;;
55148;SDS011;49539;48.160;11.530;2023-05-15T12:37:30;5.93;;;3.33;;
55148;SDS011;49539;48.160;11.530;2023-05-15T12:40:04;7.47;;;3.55;;
55148;SDS011;49539;48.160;11.530;2023-05-15T12:42:43;5.32;;;2.97;;
55148;SDS011;49539;48.160;11.530;2023-05-15T12:47:37;2.63;;;2.10;;
55148;SDS011;49539;48.160;11.530;2023-05-15T12:50:10;4.93;;;2.70;;
55148;SDS011;49539;48.160;11.530;2023-05-15T12:52:35;3.53;;;2.00;;
55148;SDS011;49539;48.160;11.530;2023-05-15T12:55:00;5.17;;;2.53;;
55148;SDS011;49539;48.160;11.530;2023-05-15T12:57:26;3.70;;;2.28;;
55148;SDS011;49539;48.160;11.530;2023-05-15T12:59:51;3.50;;;2.63;;
55148;SDS011;49539;48.160;11.530;2023-05-15T13:02:16;5.15;;;3.03;;
55148;SDS011;49539;48.160;11.530;2023-05-15T13:04:44;3.40;;;2.30;;
55148;SDS011;49539;48.160;11.530;2023-05-15T13:07:10;3.08;;;2.33;;
55148;SDS011;49539;48.160;11.530;2023-05-15T13:09:40;4.95;;;2.50;;
55148;SDS011;49539;48.160;11.530;2023-05-15T13:12:05;3.47;;;2.20;;
55148;SDS011;49539;48.160;11.530;2023-05-15T13:14:32;6.30;;;2.50;;
55148;SDS011;49539;48.160;11.530;2023-05-15T13:16:59;4.45;;;2.90;;
55148;SDS011;49539;48.160;11.530;2023-05-15T13:19:25;5.38;;;3.00;;
55148;SDS011;49539;48.160;11.530;2023-05-15T13:21:51;10.80;;;2.40;;
55148;SDS011;49539;48.160;11.530;2023-05-15T13:24:16;4.13;;;2.65;;
55148;SDS011;49539;48.160;11.530;2023-05-15T13:26:41;6.90;;;2.97;;
55148;SDS011;49539;48.160;11.530;2023-05-15T13:29:07;4.18;;;3.13;;
55148;SDS011;49539;48.160;11.530;2023-05-15T13:31:32;8.90;;;3.80;;
55148;SDS011;49539;48.160;11.530;2023-05-15T13:33:58;8.57;;;3.50;;
55148;SDS011;49539;48.160;11.530;2023-05-15T13:36:23;7.60;;;3.20;;
55148;SDS011;49539;48.160;11.530;2023-05-15T13:38:48;7.70;;;2.87;;
55148;SDS011;49539;48.160;11.530;2023-05-15T13:41:13;6.33;;;3.40;;
55148;SDS011;49539;48.160;11.530;2023-05-15T13:43:39;4.82;;;3.30;;
55148;SDS011;49539;48.160;11.530;2023-05-15T13:46:04;6.20;;;3.00;;
55148;SDS011;49539;48.160;11.530;2023-05-15T13:48:30;6.15;;;2.92;;
55148;SDS011;49539;48.160;11.530;2023-05-15T13:50:55;5.10;;;2.42;;
55148;SDS011;49539;48.160;11.530;2023-05-15T13:53:21;5.05;;;2.80;;
55148;SDS011;49539;48.160;11.530;2023-05-15T13:55:46;3.97;;;2.60;;
55148;SDS011;49539;48.160;11.530;2023-05-15T13:58:11;5.07;;;2.92;;
55148;SDS011;49539;48.160;11.530;2023-05-15T14:00:37;4.72;;;2.38;;
55148;SDS011;49539;48.160;11.530;2023-05-15T14:03:03;4.63;;;2.28;;
55148;SDS011;49539;48.160;11.530;2023-05-15T14:05:28;4.90;;;2.77;;
55148;SDS011;49539;48.160;11.530;2023-05-15T14:07:53;5.90;;;2.97;;
55148;SDS011;49539;48.160;11.530;2023-05-15T14:10:19;3.55;;;2.15;;
55148;SDS011;49539;48.160;11.530;2023-05-15T14:12:44;4.97;;;2.63;;
55148;SDS011;49539;48.160;11.530;2023-05-15T14:15:11;4.88;;;2.53;;
55148;SDS011;49539;48.160;11.530;2023-05-15T14:17:36;4.18;;;2.60;;
55148;SDS011;49539;48.160;11.530;2023-05-15T14:20:02;4.63;;;2.55;;
55148;SDS011;49539;48.160;11.530;2023-05-15T14:22:27;4.90;;;2.80;;
55148;SDS011;49539;48.160;11.530;2023-05-15T14:24:52;5.45;;;3.25;;
55148;SDS011;49539;48.160;11.530;2023-05-15T14:27:18;3.72;;;2.30;;
55148;SDS011;49539;48.160;11.530;2023-05-15T14:29:43;4.03;;;2.72;;
55148;SDS011;49539;48.160;11.530;2023-05-15T14:32:09;5.05;;;2.67;;
55148;SDS011;49539;48.160;11.530;2023-05-15T14:34:34;5.95;;;2.95;;
55148;SDS011;49539;48.160;11.530;2023-05-15T14:37:02;6.97;;;3.05;;
55148;SDS011;49539;48.160;11.530;2023-05-15T14:39:29;4.03;;;2.55;;
55148;SDS011;49539;48.160;11.530;2023-05-15T14:41:55;5.88;;;2.90;;
55148;SDS011;49539;48.160;11.530;2023-05-15T14:44:20;6.18;;;3.13;;
55148;SDS011;49539;48.160;11.530;2023-05-15T14:46:46;6.47;;;3.47;;
55148;SDS011;49539;48.160;11.530;2023-05-15T14:49:11;6.00;;;3.35;;
55148;SDS011;49539;48.160;11.530;2023-05-15T14:51:36;5.40;;;3.07;;